Aérodrome :
LOGIN :

S'inscrire | Disclaimer

   EN    FR    IT 

 










Légende :    VFR   VFR Marginal   IFR   IFR Intensif   IFR Très Intensif
Visi : 
Plafond : 
>= 8 km
>= 3000ft
5 à 8 km
1000 à 3000 ft
1500m à 5 km
500 à 1000 ft
800 à 1500m
200 à 500 ft
< 800m
< 200 ft
Symboles :   Orages  Brouillard  Fortes neiges  Fortes précipitations  Vent > 20 kt
SIGMETs :   Divers  Orages  Givrage  Turbulence  Onde Orograph.  Cendres Volcan.






- Altitude de l'aérodrome : 157 ft
- Code IATA : LIL


LFQQ - Lille Lesquin

DERNIER METAR :
  • 032000Z AUTO 34012KT CAVOK 16/09 Q1003 NOSIG

METARs EXPIRÉS :
  • 031930Z AUTO 34010KT CAVOK 17/09 Q1003 NOSIG
  • 031900Z AUTO 34013KT CAVOK 18/09 Q1003 NOSIG
  • 031830Z AUTO 34012KT CAVOK 19/09 Q1003 NOSIG
  • 031800Z AUTO 34012KT 310V010 CAVOK 20/09 Q1003 NOSIG
  • 031730Z AUTO 34012KT CAVOK 20/09 Q1003 NOSIG

TAF TAF LFQQ
Valide du 03 à 18h jusqu'au 05 à 00h UTC


031700Z 0318/0424 34010KT 9999 SCT030
PROB30
TEMPO 0323/0405 BKN008
TEMPO 0410/0414 34015G25KT 3000 SHRA BKN015TCU
BECMG 0419/0421 VRB02KT
TEMPO 0422/0424 4000 RA BKN013 OVC030
ATIS : +33 3 20 16 19 54



MET'MAP, la Météo Aéronautique d'un coup d'oeil ! - Copyright ORBIFLY Décembre 2007 - Disclaimer

ORBIFLY MET'MAP TEAM :

Programmation & Développement : Alexandra Zaïnal
Sur une idée originale de : Baudouin d'Aumeries
Assistance à la programmation : Marc-Olivier Méhu
Soutien technique & logistique : Manuel Goepfert

Contact : metmap@orbifly.com




SOURCES & CREDITS :

   NOAA